sensor_id;sensor_type;location;lat;lon;timestamp;temperature;humidity
11963;DHT22;62678;52.130;5.584;2024-03-22T00:02:19;11.60;99.90
11963;DHT22;62678;52.130;5.584;2024-03-22T00:04:45;11.60;99.90
11963;DHT22;62678;52.130;5.584;2024-03-22T00:07:11;11.60;99.90
11963;DHT22;62678;52.130;5.584;2024-03-22T00:09:38;11.70;1.00
11963;DHT22;62678;52.130;5.584;2024-03-22T00:12:05;11.70;1.00
11963;DHT22;62678;52.130;5.584;2024-03-22T00:14:32;11.60;1.00
11963;DHT22;62678;52.130;5.584;2024-03-22T00:16:59;11.70;1.00
11963;DHT22;62678;52.130;5.584;2024-03-22T00:19:26;11.80;1.00
11963;DHT22;62678;52.130;5.584;2024-03-22T00:21:52;11.80;1.00
11963;DHT22;62678;52.130;5.584;2024-03-22T00:24:19;11.80;1.00
11963;DHT22;62678;52.130;5.584;2024-03-22T00:26:45;11.80;1.00
11963;DHT22;62678;52.130;5.584;2024-03-22T00:29:12;11.70;1.00
11963;DHT22;62678;52.130;5.584;2024-03-22T00:31:37;11.70;1.00
11963;DHT22;62678;52.130;5.584;2024-03-22T00:34:06;11.70;1.00
11963;DHT22;62678;52.130;5.584;2024-03-22T00:36:32;11.70;1.00
11963;DHT22;62678;52.130;5.584;2024-03-22T00:38:58;11.80;1.00
11963;DHT22;62678;52.130;5.584;2024-03-22T00:41:24;11.70;1.00
11963;DHT22;62678;52.130;5.584;2024-03-22T00:43:51;11.70;1.00
11963;DHT22;62678;52.130;5.584;2024-03-22T00:46:17;11.70;1.00
11963;DHT22;62678;52.130;5.584;2024-03-22T00:48:44;11.70;1.00
11963;DHT22;62678;52.130;5.584;2024-03-22T00:51:11;11.70;1.00
11963;DHT22;62678;52.130;5.584;2024-03-22T00:53:38;11.70;1.00
11963;DHT22;62678;52.130;5.584;2024-03-22T00:56:05;11.70;21.80
11963;DHT22;62678;52.130;5.584;2024-03-22T00:58:32;11.70;21.90
11963;DHT22;62678;52.130;5.584;2024-03-22T01:00:58;11.70;34.90
11963;DHT22;62678;52.130;5.584;2024-03-22T01:03:25;11.70;45.30
11963;DHT22;62678;52.130;5.584;2024-03-22T01:05:51;11.70;99.90
11963;DHT22;62678;52.130;5.584;2024-03-22T01:08:19;11.70;99.90
11963;DHT22;62678;52.130;5.584;2024-03-22T01:10:45;11.70;99.90
11963;DHT22;62678;52.130;5.584;2024-03-22T01:13:12;11.70;99.90
11963;DHT22;62678;52.130;5.584;2024-03-22T01:15:38;11.70;99.90
11963;DHT22;62678;52.130;5.584;2024-03-22T01:18:05;11.70;99.90
11963;DHT22;62678;52.130;5.584;2024-03-22T01:20:31;11.70;99.90
11963;DHT22;62678;52.130;5.584;2024-03-22T01:22:59;11.70;99.90
11963;DHT22;62678;52.130;5.584;2024-03-22T01:25:27;11.70;99.90
11963;DHT22;62678;52.130;5.584;2024-03-22T01:27:54;11.80;99.90
11963;DHT22;62678;52.130;5.584;2024-03-22T01:30:20;11.80;99.90
11963;DHT22;62678;52.130;5.584;2024-03-22T01:32:47;11.80;99.90
11963;DHT22;62678;52.130;5.584;2024-03-22T01:35:13;11.80;99.90
11963;DHT22;62678;52.130;5.584;2024-03-22T01:37:40;11.80;99.90
11963;DHT22;62678;52.130;5.584;2024-03-22T01:40:08;11.80;99.90
11963;DHT22;62678;52.130;5.584;2024-03-22T01:42:36;11.80;99.90
11963;DHT22;62678;52.130;5.584;2024-03-22T01:45:03;11.80;99.90
11963;DHT22;62678;52.130;5.584;2024-03-22T01:47:30;11.80;99.90
11963;DHT22;62678;52.130;5.584;2024-03-22T01:49:56;11.80;99.90
11963;DHT22;62678;52.130;5.584;2024-03-22T01:52:23;11.80;99.90
11963;DHT22;62678;52.130;5.584;2024-03-22T01:54:49;11.80;99.90
11963;DHT22;62678;52.130;5.584;2024-03-22T01:57:16;11.80;99.90
11963;DHT22;62678;52.130;5.584;2024-03-22T01:59:44;11.80;99.90
11963;DHT22;62678;52.130;5.584;2024-03-22T02:02:12;11.80;99.90
11963;DHT22;62678;52.130;5.584;2024-03-22T02:04:38;11.80;99.90
11963;DHT22;62678;52.130;5.584;2024-03-22T02:07:05;11.80;99.90
11963;DHT22;62678;52.130;5.584;2024-03-22T02:09:31;11.80;99.90
11963;DHT22;62678;52.130;5.584;2024-03-22T02:11:58;11.70;99.90
11963;DHT22;62678;52.130;5.584;2024-03-22T02:14:24;11.80;99.90
11963;DHT22;62678;52.130;5.584;2024-03-22T02:16:53;11.80;99.90
11963;DHT22;62678;52.130;5.584;2024-03-22T02:19:18;11.90;99.90
11963;DHT22;62678;52.130;5.584;2024-03-22T02:21:45;11.80;99.90
11963;DHT22;62678;52.130;5.584;2024-03-22T02:24:13;11.90;99.90
11963;DHT22;62678;52.130;5.584;2024-03-22T02:26:40;11.90;99.90
11963;DHT22;62678;52.130;5.584;2024-03-22T02:29:06;11.90;99.90
11963;DHT22;62678;52.130;5.584;2024-03-22T02:31:32;11.90;99.90
11963;DHT22;62678;52.130;5.584;2024-03-22T02:33:58;12.00;95.50
11963;DHT22;62678;52.130;5.584;2024-03-22T02:36:26;11.90;99.90
11963;DHT22;62678;52.130;5.584;2024-03-22T02:38:52;12.00;99.90
11963;DHT22;62678;52.130;5.584;2024-03-22T02:41:20;12.00;99.90
11963;DHT22;62678;52.130;5.584;2024-03-22T02:43:46;11.90;99.90
11963;DHT22;62678;52.130;5.584;2024-03-22T02:46:13;12.00;99.90
11963;DHT22;62678;52.130;5.584;2024-03-22T02:48:39;12.00;99.90
11963;DHT22;62678;52.130;5.584;2024-03-22T02:51:06;12.00;99.90
11963;DHT22;62678;52.130;5.584;2024-03-22T02:53:32;12.00;99.90
11963;DHT22;62678;52.130;5.584;2024-03-22T02:56:00;12.00;99.90
11963;DHT22;62678;52.130;5.584;2024-03-22T02:58:27;11.90;99.90
11963;DHT22;62678;52.130;5.584;2024-03-22T03:00:54;12.00;96.00
11963;DHT22;62678;52.130;5.584;2024-03-22T03:03:20;12.00;53.00
11963;DHT22;62678;52.130;5.584;2024-03-22T03:05:47;12.00;95.10
11963;DHT22;62678;52.130;5.584;2024-03-22T03:08:13;12.00;79.90
11963;DHT22;62678;52.130;5.584;2024-03-22T03:10:40;11.90;50.90
11963;DHT22;62678;52.130;5.584;2024-03-22T03:13:06;11.90;1.00
11963;DHT22;62678;52.130;5.584;2024-03-22T03:15:34;11.80;1.00
11963;DHT22;62678;52.130;5.584;2024-03-22T03:18:00;11.70;1.00
11963;DHT22;62678;52.130;5.584;2024-03-22T03:20:27;11.70;1.00
11963;DHT22;62678;52.130;5.584;2024-03-22T03:22:53;11.60;1.00
11963;DHT22;62678;52.130;5.584;2024-03-22T03:25:21;11.50;1.00
11963;DHT22;62678;52.130;5.584;2024-03-22T03:27:47;11.50;1.00
11963;DHT22;62678;52.130;5.584;2024-03-22T03:30:14;11.40;1.00
11963;DHT22;62678;52.130;5.584;2024-03-22T03:32:41;11.40;1.00
11963;DHT22;62678;52.130;5.584;2024-03-22T03:35:08;11.40;1.00
11963;DHT22;62678;52.130;5.584;2024-03-22T03:37:34;11.40;1.00
11963;DHT22;62678;52.130;5.584;2024-03-22T03:40:01;11.40;1.00
11963;DHT22;62678;52.130;5.584;2024-03-22T03:42:27;11.30;1.00
11963;DHT22;62678;52.130;5.584;2024-03-22T03:44:54;11.30;1.00
11963;DHT22;62678;52.130;5.584;2024-03-22T03:47:19;11.20;1.00
11963;DHT22;62678;52.130;5.584;2024-03-22T03:49:48;11.20;1.00
11963;DHT22;62678;52.130;5.584;2024-03-22T03:52:13;11.30;1.00
11963;DHT22;62678;52.130;5.584;2024-03-22T03:54:40;11.20;1.00
11963;DHT22;62678;52.130;5.584;2024-03-22T03:57:06;11.20;1.00
11963;DHT22;62678;52.130;5.584;2024-03-22T03:59:33;11.20;1.00
11963;DHT22;62678;52.130;5.584;2024-03-22T04:01:59;11.20;1.00
11963;DHT22;62678;52.130;5.584;2024-03-22T04:04:26;11.10;1.00
11963;DHT22;62678;52.130;5.584;2024-03-22T04:06:54;11.10;1.00
11963;DHT22;62678;52.130;5.584;2024-03-22T04:09:20;11.10;1.00
11963;DHT22;62678;52.130;5.584;2024-03-22T04:11:46;11.10;1.00
11963;DHT22;62678;52.130;5.584;2024-03-22T04:14:14;11.10;1.00
11963;DHT22;62678;52.130;5.584;2024-03-22T04:16:40;11.10;1.00
11963;DHT22;62678;52.130;5.584;2024-03-22T04:19:07;11.10;1.00
11963;DHT22;62678;52.130;5.584;2024-03-22T04:21:33;11.00;1.00
11963;DHT22;62678;52.130;5.584;2024-03-22T04:24:01;11.10;1.00
11963;DHT22;62678;52.130;5.584;2024-03-22T04:26:27;11.10;1.00
11963;DHT22;62678;52.130;5.584;2024-03-22T04:28:54;11.10;1.00
11963;DHT22;62678;52.130;5.584;2024-03-22T04:31:20;11.00;1.00
11963;DHT22;62678;52.130;5.584;2024-03-22T04:33:47;11.10;1.00
11963;DHT22;62678;52.130;5.584;2024-03-22T04:36:13;11.00;1.00
11963;DHT22;62678;52.130;5.584;2024-03-22T04:38:40;10.90;1.00
11963;DHT22;62678;52.130;5.584;2024-03-22T04:41:08;10.90;1.00
11963;DHT22;62678;52.130;5.584;2024-03-22T04:43:35;10.90;1.00
11963;DHT22;62678;52.130;5.584;2024-03-22T04:46:02;11.00;1.00
11963;DHT22;62678;52.130;5.584;2024-03-22T04:48:29;11.00;1.00
11963;DHT22;62678;52.130;5.584;2024-03-22T04:50:54;10.90;1.00
11963;DHT22;62678;52.130;5.584;2024-03-22T04:53:21;10.90;1.00
11963;DHT22;62678;52.130;5.584;2024-03-22T04:55:48;10.90;1.00
11963;DHT22;62678;52.130;5.584;2024-03-22T04:58:18;10.90;1.00
11963;DHT22;62678;52.130;5.584;2024-03-22T05:00:45;10.90;1.00
11963;DHT22;62678;52.130;5.584;2024-03-22T05:03:12;10.90;1.00
11963;DHT22;62678;52.130;5.584;2024-03-22T05:05:39;10.90;1.00
11963;DHT22;62678;52.130;5.584;2024-03-22T05:08:06;10.90;1.00
11963;DHT22;62678;52.130;5.584;2024-03-22T05:10:33;10.80;1.00
11963;DHT22;62678;52.130;5.584;2024-03-22T05:13:00;10.80;1.00
11963;DHT22;62678;52.130;5.584;2024-03-22T05:15:27;10.90;1.00
11963;DHT22;62678;52.130;5.584;2024-03-22T05:17:56;10.90;1.00
11963;DHT22;62678;52.130;5.584;2024-03-22T05:20:22;10.90;1.00
11963;DHT22;62678;52.130;5.584;2024-03-22T05:22:49;10.90;1.00
11963;DHT22;62678;52.130;5.584;2024-03-22T05:25:15;10.90;1.00
11963;DHT22;62678;52.130;5.584;2024-03-22T05:27:43;10.90;1.00
11963;DHT22;62678;52.130;5.584;2024-03-22T05:30:10;10.90;1.00
11963;DHT22;62678;52.130;5.584;2024-03-22T05:32:38;10.90;1.00
11963;DHT22;62678;52.130;5.584;2024-03-22T05:35:05;10.80;1.00
11963;DHT22;62678;52.130;5.584;2024-03-22T05:37:32;10.80;1.00
11963;DHT22;62678;52.130;5.584;2024-03-22T05:39:59;10.80;1.00
11963;DHT22;62678;52.130;5.584;2024-03-22T05:42:26;10.80;1.00
11963;DHT22;62678;52.130;5.584;2024-03-22T05:44:52;10.90;1.00
11963;DHT22;62678;52.130;5.584;2024-03-22T05:47:20;10.90;1.00
11963;DHT22;62678;52.130;5.584;2024-03-22T05:49:48;10.80;1.00
11963;DHT22;62678;52.130;5.584;2024-03-22T05:52:15;10.80;1.00
11963;DHT22;62678;52.130;5.584;2024-03-22T05:54:41;10.80;1.00
11963;DHT22;62678;52.130;5.584;2024-03-22T05:57:08;10.80;1.00
11963;DHT22;62678;52.130;5.584;2024-03-22T05:59:34;10.80;1.00
11963;DHT22;62678;52.130;5.584;2024-03-22T06:02:01;10.90;1.00
11963;DHT22;62678;52.130;5.584;2024-03-22T06:04:27;10.90;1.00
11963;DHT22;62678;52.130;5.584;2024-03-22T06:06:55;10.90;1.00
11963;DHT22;62678;52.130;5.584;2024-03-22T06:09:21;10.80;1.00
11963;DHT22;62678;52.130;5.584;2024-03-22T06:11:59;10.80;1.00
11963;DHT22;62678;52.130;5.584;2024-03-22T06:14:25;10.70;1.00
11963;DHT22;62678;52.130;5.584;2024-03-22T06:16:52;10.90;1.00
11963;DHT22;62678;52.130;5.584;2024-03-22T06:19:18;11.00;1.00
11963;DHT22;62678;52.130;5.584;2024-03-22T06:21:45;11.00;1.00
11963;DHT22;62678;52.130;5.584;2024-03-22T06:24:12;10.90;1.00
11963;DHT22;62678;52.130;5.584;2024-03-22T06:26:39;11.00;1.00
11963;DHT22;62678;52.130;5.584;2024-03-22T06:29:05;10.90;1.00
11963;DHT22;62678;52.130;5.584;2024-03-22T06:31:32;10.80;1.00
11963;DHT22;62678;52.130;5.584;2024-03-22T06:33:57;10.80;1.00
11963;DHT22;62678;52.130;5.584;2024-03-22T06:36:28;10.80;1.00
11963;DHT22;62678;52.130;5.584;2024-03-22T06:38:53;10.90;1.00
11963;DHT22;62678;52.130;5.584;2024-03-22T06:41:22;10.90;1.00
11963;DHT22;62678;52.130;5.584;2024-03-22T06:43:48;10.90;99.90
11963;DHT22;62678;52.130;5.584;2024-03-22T06:46:15;11.00;99.90
11963;DHT22;62678;52.130;5.584;2024-03-22T06:48:41;11.00;99.90
11963;DHT22;62678;52.130;5.584;2024-03-22T06:51:07;11.20;99.90
11963;DHT22;62678;52.130;5.584;2024-03-22T06:53:33;11.20;99.90
11963;DHT22;62678;52.130;5.584;2024-03-22T06:56:00;11.10;99.90
11963;DHT22;62678;52.130;5.584;2024-03-22T06:58:27;11.20;99.90
11963;DHT22;62678;52.130;5.584;2024-03-22T07:00:54;11.30;99.90
11963;DHT22;62678;52.130;5.584;2024-03-22T07:03:20;11.20;59.90
11963;DHT22;62678;52.130;5.584;2024-03-22T07:05:47;11.30;99.90
11963;DHT22;62678;52.130;5.584;2024-03-22T07:08:13;11.30;99.90
11963;DHT22;62678;52.130;5.584;2024-03-22T07:10:40;11.40;26.30
11963;DHT22;62678;52.130;5.584;2024-03-22T07:13:06;11.30;1.00
11963;DHT22;62678;52.130;5.584;2024-03-22T07:15:34;11.30;1.00
11963;DHT22;62678;52.130;5.584;2024-03-22T07:18:00;11.30;49.40
11963;DHT22;62678;52.130;5.584;2024-03-22T07:20:28;11.30;40.20
11963;DHT22;62678;52.130;5.584;2024-03-22T07:22:54;11.30;99.90
11963;DHT22;62678;52.130;5.584;2024-03-22T07:25:20;11.30;63.90
11963;DHT22;62678;52.130;5.584;2024-03-22T07:27:46;11.30;1.00
11963;DHT22;62678;52.130;5.584;2024-03-22T07:30:14;11.30;35.90
11963;DHT22;62678;52.130;5.584;2024-03-22T07:32:42;11.30;99.90
11963;DHT22;62678;52.130;5.584;2024-03-22T07:35:09;11.30;99.90
11963;DHT22;62678;52.130;5.584;2024-03-22T07:37:34;11.40;3.40
11963;DHT22;62678;52.130;5.584;2024-03-22T07:40:01;11.30;99.90
11963;DHT22;62678;52.130;5.584;2024-03-22T07:42:28;11.30;29.00
11963;DHT22;62678;52.130;5.584;2024-03-22T07:44:55;11.40;71.90
11963;DHT22;62678;52.130;5.584;2024-03-22T07:47:20;11.20;99.90
11963;DHT22;62678;52.130;5.584;2024-03-22T07:49:49;11.20;99.90
11963;DHT22;62678;52.130;5.584;2024-03-22T07:52:15;11.30;95.10
11963;DHT22;62678;52.130;5.584;2024-03-22T07:54:41;11.20;44.50
11963;DHT22;62678;52.130;5.584;2024-03-22T07:57:07;11.20;13.20
11963;DHT22;62678;52.130;5.584;2024-03-22T07:59:36;11.30;72.70
11963;DHT22;62678;52.130;5.584;2024-03-22T08:02:02;11.30;99.90
11963;DHT22;62678;52.130;5.584;2024-03-22T08:04:29;11.30;1.00
11963;DHT22;62678;52.130;5.584;2024-03-22T08:06:57;11.20;1.00
11963;DHT22;62678;52.130;5.584;2024-03-22T08:09:24;11.30;1.00
11963;DHT22;62678;52.130;5.584;2024-03-22T08:11:50;11.20;99.90
11963;DHT22;62678;52.130;5.584;2024-03-22T08:14:17;11.20;52.50
11963;DHT22;62678;52.130;5.584;2024-03-22T08:16:43;11.20;99.90
11963;DHT22;62678;52.130;5.584;2024-03-22T08:19:10;11.30;1.00
11963;DHT22;62678;52.130;5.584;2024-03-22T08:21:35;11.40;1.00
11963;DHT22;62678;52.130;5.584;2024-03-22T08:24:05;11.30;1.00
11963;DHT22;62678;52.130;5.584;2024-03-22T08:26:31;11.30;6.30
11963;DHT22;62678;52.130;5.584;2024-03-22T08:28:58;11.30;41.20
11963;DHT22;62678;52.130;5.584;2024-03-22T08:31:25;11.30;1.00
11963;DHT22;62678;52.130;5.584;2024-03-22T08:33:54;11.30;1.00
11963;DHT22;62678;52.130;5.584;2024-03-22T08:36:21;11.20;99.90
11963;DHT22;62678;52.130;5.584;2024-03-22T08:38:49;11.20;99.90
11963;DHT22;62678;52.130;5.584;2024-03-22T08:41:16;11.20;99.90
11963;DHT22;62678;52.130;5.584;2024-03-22T08:43:43;11.20;99.90
11963;DHT22;62678;52.130;5.584;2024-03-22T08:46:10;11.20;1.00
11963;DHT22;62678;52.130;5.584;2024-03-22T08:48:37;11.20;1.00
11963;DHT22;62678;52.130;5.584;2024-03-22T08:51:03;11.10;1.00
11963;DHT22;62678;52.130;5.584;2024-03-22T08:53:30;11.20;1.00
11963;DHT22;62678;52.130;5.584;2024-03-22T08:55:56;11.10;1.00
11963;DHT22;62678;52.130;5.584;2024-03-22T08:58:25;11.10;1.00
11963;DHT22;62678;52.130;5.584;2024-03-22T09:00:51;11.00;1.00
11963;DHT22;62678;52.130;5.584;2024-03-22T09:03:19;11.10;13.60
11963;DHT22;62678;52.130;5.584;2024-03-22T09:05:46;11.10;1.00
11963;DHT22;62678;52.130;5.584;2024-03-22T09:08:13;11.20;7.60
11963;DHT22;62678;52.130;5.584;2024-03-22T09:10:39;11.10;1.00
11963;DHT22;62678;52.130;5.584;2024-03-22T09:13:06;11.10;1.00
11963;DHT22;62678;52.130;5.584;2024-03-22T09:15:33;11.00;99.90
11963;DHT22;62678;52.130;5.584;2024-03-22T09:18:00;11.00;96.50
11963;DHT22;62678;52.130;5.584;2024-03-22T09:20:32;11.00;99.90
11963;DHT22;62678;52.130;5.584;2024-03-22T09:22:58;11.10;99.90
11963;DHT22;62678;52.130;5.584;2024-03-22T09:25:25;11.10;99.90
11963;DHT22;62678;52.130;5.584;2024-03-22T09:27:51;11.00;99.90
11963;DHT22;62678;52.130;5.584;2024-03-22T09:30:17;11.00;99.90
11963;DHT22;62678;52.130;5.584;2024-03-22T09:32:46;11.10;99.90
11963;DHT22;62678;52.130;5.584;2024-03-22T09:35:11;11.10;99.90
11963;DHT22;62678;52.130;5.584;2024-03-22T09:37:40;11.20;99.90
11963;DHT22;62678;52.130;5.584;2024-03-22T09:40:07;11.20;99.90
11963;DHT22;62678;52.130;5.584;2024-03-22T09:42:38;11.20;99.90
11963;DHT22;62678;52.130;5.584;2024-03-22T09:45:08;11.30;99.90
11963;DHT22;62678;52.130;5.584;2024-03-22T09:47:36;11.30;99.90
11963;DHT22;62678;52.130;5.584;2024-03-22T09:50:07;11.10;99.90
11963;DHT22;62678;52.130;5.584;2024-03-22T09:52:35;11.10;1.00
11963;DHT22;62678;52.130;5.584;2024-03-22T09:55:04;11.10;1.00
11963;DHT22;62678;52.130;5.584;2024-03-22T09:57:31;11.10;1.00
11963;DHT22;62678;52.130;5.584;2024-03-22T09:59:59;11.30;1.00
11963;DHT22;62678;52.130;5.584;2024-03-22T10:02:27;11.30;1.00
11963;DHT22;62678;52.130;5.584;2024-03-22T10:04:52;11.30;1.00
11963;DHT22;62678;52.130;5.584;2024-03-22T10:07:21;11.30;1.00
11963;DHT22;62678;52.130;5.584;2024-03-22T10:09:47;11.40;1.00
11963;DHT22;62678;52.130;5.584;2024-03-22T10:12:13;11.30;1.00
11963;DHT22;62678;52.130;5.584;2024-03-22T10:14:43;11.30;1.00
11963;DHT22;62678;52.130;5.584;2024-03-22T10:17:10;11.20;1.00
11963;DHT22;62678;52.130;5.584;2024-03-22T10:19:36;11.30;1.00
11963;DHT22;62678;52.130;5.584;2024-03-22T10:22:03;11.40;1.00
11963;DHT22;62678;52.130;5.584;2024-03-22T10:24:31;11.30;1.00
11963;DHT22;62678;52.130;5.584;2024-03-22T10:26:58;11.30;1.00
11963;DHT22;62678;52.130;5.584;2024-03-22T10:29:24;11.30;1.00
11963;DHT22;62678;52.130;5.584;2024-03-22T10:31:52;11.30;1.00
11963;DHT22;62678;52.130;5.584;2024-03-22T10:34:21;11.40;1.00
11963;DHT22;62678;52.130;5.584;2024-03-22T10:36:48;11.50;1.00
11963;DHT22;62678;52.130;5.584;2024-03-22T10:39:16;11.50;1.00
11963;DHT22;62678;52.130;5.584;2024-03-22T10:41:45;11.40;1.00
11963;DHT22;62678;52.130;5.584;2024-03-22T10:44:12;11.50;1.00
11963;DHT22;62678;52.130;5.584;2024-03-22T10:46:44;11.40;1.00
11963;DHT22;62678;52.130;5.584;2024-03-22T10:49:13;11.50;1.00
11963;DHT22;62678;52.130;5.584;2024-03-22T10:51:43;11.60;1.00
11963;DHT22;62678;52.130;5.584;2024-03-22T10:54:11;11.60;1.00
11963;DHT22;62678;52.130;5.584;2024-03-22T10:56:40;11.50;1.00
11963;DHT22;62678;52.130;5.584;2024-03-22T10:59:08;11.50;1.00
11963;DHT22;62678;52.130;5.584;2024-03-22T11:01:35;11.50;1.00
11963;DHT22;62678;52.130;5.584;2024-03-22T11:04:06;11.50;1.00
11963;DHT22;62678;52.130;5.584;2024-03-22T11:06:36;11.40;1.00
11963;DHT22;62678;52.130;5.584;2024-03-22T11:09:02;11.40;1.00
11963;DHT22;62678;52.130;5.584;2024-03-22T11:11:29;11.30;1.00
11963;DHT22;62678;52.130;5.584;2024-03-22T11:13:57;11.40;1.00
11963;DHT22;62678;52.130;5.584;2024-03-22T11:16:25;11.40;1.00
11963;DHT22;62678;52.130;5.584;2024-03-22T11:18:50;11.40;1.00
11963;DHT22;62678;52.130;5.584;2024-03-22T11:21:18;11.40;1.00
11963;DHT22;62678;52.130;5.584;2024-03-22T11:23:45;11.50;1.00
11963;DHT22;62678;52.130;5.584;2024-03-22T11:26:12;11.70;1.00
11963;DHT22;62678;52.130;5.584;2024-03-22T11:28:38;11.70;1.00
11963;DHT22;62678;52.130;5.584;2024-03-22T11:31:05;11.80;1.00
11963;DHT22;62678;52.130;5.584;2024-03-22T11:33:32;11.90;1.00
11963;DHT22;62678;52.130;5.584;2024-03-22T11:35:59;12.00;1.00
11963;DHT22;62678;52.130;5.584;2024-03-22T11:38:26;12.10;1.00
11963;DHT22;62678;52.130;5.584;2024-03-22T11:40:54;11.90;99.90
11963;DHT22;62678;52.130;5.584;2024-03-22T11:43:22;11.70;1.00
11963;DHT22;62678;52.130;5.584;2024-03-22T11:45:49;11.70;1.00
11963;DHT22;62678;52.130;5.584;2024-03-22T11:48:15;11.70;1.00
11963;DHT22;62678;52.130;5.584;2024-03-22T11:50:45;11.80;1.00
11963;DHT22;62678;52.130;5.584;2024-03-22T11:53:11;11.90;1.00
11963;DHT22;62678;52.130;5.584;2024-03-22T11:55:38;12.00;99.90
11963;DHT22;62678;52.130;5.584;2024-03-22T11:58:04;12.00;1.00
11963;DHT22;62678;52.130;5.584;2024-03-22T12:00:31;11.90;99.90
11963;DHT22;62678;52.130;5.584;2024-03-22T12:02:57;12.00;1.00
11963;DHT22;62678;52.130;5.584;2024-03-22T12:05:24;11.90;99.90
11963;DHT22;62678;52.130;5.584;2024-03-22T12:07:53;11.80;99.90
11963;DHT22;62678;52.130;5.584;2024-03-22T12:10:19;11.90;1.00
11963;DHT22;62678;52.130;5.584;2024-03-22T12:12:45;11.80;1.00
11963;DHT22;62678;52.130;5.584;2024-03-22T12:15:12;11.60;1.00
11963;DHT22;62678;52.130;5.584;2024-03-22T12:17:38;11.60;1.00
11963;DHT22;62678;52.130;5.584;2024-03-22T12:20:08;11.60;1.00
11963;DHT22;62678;52.130;5.584;2024-03-22T12:22:34;11.60;1.00
11963;DHT22;62678;52.130;5.584;2024-03-22T12:25:02;11.50;1.00
11963;DHT22;62678;52.130;5.584;2024-03-22T12:27:30;11.50;1.00
11963;DHT22;62678;52.130;5.584;2024-03-22T12:29:56;11.50;1.00
11963;DHT22;62678;52.130;5.584;2024-03-22T12:32:22;11.40;1.00
11963;DHT22;62678;52.130;5.584;2024-03-22T12:34:49;11.40;1.00
11963;DHT22;62678;52.130;5.584;2024-03-22T12:37:15;11.40;1.00
11963;DHT22;62678;52.130;5.584;2024-03-22T12:39:42;11.40;1.00
11963;DHT22;62678;52.130;5.584;2024-03-22T12:42:09;11.40;1.00
11963;DHT22;62678;52.130;5.584;2024-03-22T12:44:36;11.40;1.00
11963;DHT22;62678;52.130;5.584;2024-03-22T12:47:02;11.40;1.00
11963;DHT22;62678;52.130;5.584;2024-03-22T12:49:29;11.50;1.00
11963;DHT22;62678;52.130;5.584;2024-03-22T12:51:55;11.50;1.00
11963;DHT22;62678;52.130;5.584;2024-03-22T12:54:22;11.50;1.00
11963;DHT22;62678;52.130;5.584;2024-03-22T12:56:48;11.40;1.00
11963;DHT22;62678;52.130;5.584;2024-03-22T12:59:17;11.30;1.00
11963;DHT22;62678;52.130;5.584;2024-03-22T13:01:42;11.20;1.00
11963;DHT22;62678;52.130;5.584;2024-03-22T13:04:10;11.10;1.00
11963;DHT22;62678;52.130;5.584;2024-03-22T13:06:36;11.10;1.00
11963;DHT22;62678;52.130;5.584;2024-03-22T13:09:02;11.10;1.00
11963;DHT22;62678;52.130;5.584;2024-03-22T13:11:30;11.20;1.00
11963;DHT22;62678;52.130;5.584;2024-03-22T13:13:57;11.30;1.00
11963;DHT22;62678;52.130;5.584;2024-03-22T13:16:24;11.40;1.00
11963;DHT22;62678;52.130;5.584;2024-03-22T13:18:51;11.40;1.00
11963;DHT22;62678;52.130;5.584;2024-03-22T13:21:17;11.40;1.00
11963;DHT22;62678;52.130;5.584;2024-03-22T13:23:44;11.30;1.00
11963;DHT22;62678;52.130;5.584;2024-03-22T13:26:10;11.30;1.00
11963;DHT22;62678;52.130;5.584;2024-03-22T13:28:37;11.40;1.00
11963;DHT22;62678;52.130;5.584;2024-03-22T13:31:03;11.30;1.00
11963;DHT22;62678;52.130;5.584;2024-03-22T13:33:33;11.30;1.00
11963;DHT22;62678;52.130;5.584;2024-03-22T13:36:00;11.20;1.00
11963;DHT22;62678;52.130;5.584;2024-03-22T13:38:26;11.20;1.00
11963;DHT22;62678;52.130;5.584;2024-03-22T13:40:54;11.00;1.00
11963;DHT22;62678;52.130;5.584;2024-03-22T13:43:20;11.10;1.00
11963;DHT22;62678;52.130;5.584;2024-03-22T13:45:50;11.00;1.00
11963;DHT22;62678;52.130;5.584;2024-03-22T13:48:20;11.00;1.00
11963;DHT22;62678;52.130;5.584;2024-03-22T13:50:51;11.10;1.00
11963;DHT22;62678;52.130;5.584;2024-03-22T13:56:39;11.20;99.90
11963;DHT22;62678;52.130;5.584;2024-03-22T13:59:06;11.20;99.90
11963;DHT22;62678;52.130;5.584;2024-03-22T14:01:33;11.10;99.90
11963;DHT22;62678;52.130;5.584;2024-03-22T14:04:01;11.10;99.90
11963;DHT22;62678;52.130;5.584;2024-03-22T14:06:30;11.20;1.00
11963;DHT22;62678;52.130;5.584;2024-03-22T14:08:58;11.30;1.00
11963;DHT22;62678;52.130;5.584;2024-03-22T14:11:26;11.40;1.00
11963;DHT22;62678;52.130;5.584;2024-03-22T14:13:53;11.40;1.00
11963;DHT22;62678;52.130;5.584;2024-03-22T14:16:19;11.30;1.00
11963;DHT22;62678;52.130;5.584;2024-03-22T14:18:46;11.30;99.90
11963;DHT22;62678;52.130;5.584;2024-03-22T14:21:12;11.40;99.90
11963;DHT22;62678;52.130;5.584;2024-03-22T14:23:44;11.40;99.90
11963;DHT22;62678;52.130;5.584;2024-03-22T14:26:09;11.40;99.90
11963;DHT22;62678;52.130;5.584;2024-03-22T14:28:36;11.40;1.00
11963;DHT22;62678;52.130;5.584;2024-03-22T14:31:02;11.40;99.90
11963;DHT22;62678;52.130;5.584;2024-03-22T14:33:29;11.50;99.90
11963;DHT22;62678;52.130;5.584;2024-03-22T14:35:55;11.40;99.90
11963;DHT22;62678;52.130;5.584;2024-03-22T14:38:22;11.30;99.90
11963;DHT22;62678;52.130;5.584;2024-03-22T14:40:49;11.10;99.90
11963;DHT22;62678;52.130;5.584;2024-03-22T14:43:18;11.20;99.90
11963;DHT22;62678;52.130;5.584;2024-03-22T14:45:44;11.10;99.90
11963;DHT22;62678;52.130;5.584;2024-03-22T14:48:11;11.30;99.90
11963;DHT22;62678;52.130;5.584;2024-03-22T14:50:36;11.30;99.90
11963;DHT22;62678;52.130;5.584;2024-03-22T14:53:04;11.40;99.90
11963;DHT22;62678;52.130;5.584;2024-03-22T14:55:29;11.50;99.90
11963;DHT22;62678;52.130;5.584;2024-03-22T14:57:58;11.40;99.90
11963;DHT22;62678;52.130;5.584;2024-03-22T15:00:23;11.40;99.90
11963;DHT22;62678;52.130;5.584;2024-03-22T15:02:51;11.40;99.90
11963;DHT22;62678;52.130;5.584;2024-03-22T15:05:17;11.50;99.90
11963;DHT22;62678;52.130;5.584;2024-03-22T15:07:44;11.40;99.90
11963;DHT22;62678;52.130;5.584;2024-03-22T15:10:10;11.40;99.90
11963;DHT22;62678;52.130;5.584;2024-03-22T15:12:37;11.40;99.90
11963;DHT22;62678;52.130;5.584;2024-03-22T15:15:06;11.40;99.90
11963;DHT22;62678;52.130;5.584;2024-03-22T15:17:33;11.40;99.90
11963;DHT22;62678;52.130;5.584;2024-03-22T15:20:00;11.40;99.90
11963;DHT22;62678;52.130;5.584;2024-03-22T15:22:26;11.40;99.90
11963;DHT22;62678;52.130;5.584;2024-03-22T15:24:53;11.30;99.90
11963;DHT22;62678;52.130;5.584;2024-03-22T15:27:19;11.20;1.00
11963;DHT22;62678;52.130;5.584;2024-03-22T15:29:46;11.10;1.00
11963;DHT22;62678;52.130;5.584;2024-03-22T15:32:13;11.00;1.00
11963;DHT22;62678;52.130;5.584;2024-03-22T15:34:40;11.10;1.00
11963;DHT22;62678;52.130;5.584;2024-03-22T15:37:05;11.20;1.00
11963;DHT22;62678;52.130;5.584;2024-03-22T15:39:32;11.10;1.00
11963;DHT22;62678;52.130;5.584;2024-03-22T15:41:58;11.00;9.40